TimeCDT,TemperatureF,Dew PointF,Humidity,Sea Level PressureIn,VisibilityMPH,Wind Direction,Wind SpeedMPH,Gust SpeedMPH,PrecipitationIn,Events,Conditions,WindDirDegrees,DateUTC
12:53 AM,79.0,54.0,42,29.69,10.0,SSE,20.7,31.1,N/A,,Scattered Clouds,160,2013-07-06 05:53:00
1:53 AM,77.0,55.0,47,29.67,10.0,SSE,18.4,31.1,N/A,,Clear,160,2013-07-06 06:53:00
2:53 AM,78.1,54.0,43,29.65,10.0,South,18.4,28.8,N/A,,Clear,170,2013-07-06 07:53:00
3:53 AM,75.9,55.0,48,29.67,10.0,South,17.3,25.3,N/A,,Clear,170,2013-07-06 08:53:00
4:53 AM,73.9,55.9,53,29.67,10.0,SSE,17.3,27.6,N/A,,Clear,160,2013-07-06 09:53:00
5:53 AM,73.0,55.9,55,29.68,10.0,SSE,15.0,21.9,N/A,,Clear,160,2013-07-06 10:53:00
6:53 AM,72.0,55.9,57,29.68,9.0,South,13.8,19.6,N/A,,Clear,170,2013-07-06 11:53:00
7:53 AM,72.0,57.0,59,29.70,9.0,Variable,3.5,-,N/A,,Clear,0,2013-07-06 12:53:00
8:53 AM,77.0,55.0,47,29.71,10.0,South,13.8,20.7,N/A,,Clear,180,2013-07-06 13:53:00
9:53 AM,82.0,55.9,41,29.70,10.0,South,13.8,-,N/A,,Clear,190,2013-07-06 14:53:00
10:53 AM,87.1,57.9,37,29.69,10.0,SSW,11.5,-,N/A,,Clear,210,2013-07-06 15:53:00
11:53 AM,90.0,57.0,33,29.68,10.0,SW,9.2,-,N/A,,Clear,220,2013-07-06 16:53:00
12:53 PM,95.0,57.0,28,29.67,10.0,West,11.5,-,N/A,,Clear,270,2013-07-06 17:53:00
1:53 PM,96.1,57.0,27,29.67,10.0,West,9.2,-,N/A,,Clear,280,2013-07-06 18:53:00
2:53 PM,99.0,55.9,24,29.66,10.0,NW,9.2,-,N/A,,Clear,310,2013-07-06 19:53:00
3:53 PM,102.0,54.0,20,29.65,10.0,West,6.9,-,N/A,,Clear,260,2013-07-06 20:53:00
4:53 PM,100.9,54.0,21,29.65,10.0,NNW,13.8,17.3,N/A,,Clear,330,2013-07-06 21:53:00
5:53 PM,100.0,53.1,21,29.65,10.0,WNW,4.6,-,N/A,,Clear,290,2013-07-06 22:53:00
6:53 PM,99.0,54.0,22,29.65,10.0,NW,8.1,-,N/A,,Clear,320,2013-07-06 23:53:00
7:53 PM,97.0,55.0,24,29.65,10.0,West,4.6,-,N/A,,Clear,280,2013-07-07 00:53:00
8:53 PM,91.0,61.0,36,29.66,10.0,NNE,15.0,20.7,N/A,,Clear,30,2013-07-07 01:53:00
9:53 PM,82.9,61.0,47,29.69,10.0,North,5.8,-,N/A,,Clear,10,2013-07-07 02:53:00
10:53 PM,81.0,60.1,49,29.70,10.0,ENE,5.8,-,N/A,,Clear,70,2013-07-07 03:53:00
11:53 PM,79.0,61.0,54,29.73,10.0,South,5.8,-,N/A,,Clear,180,2013-07-07 04:53:00